Aérodrome :
LOGIN :

S'inscrire | Disclaimer

   EN    FR    IT 

 










Légende :    VFR   VFR Marginal   IFR   IFR Intensif   IFR Très Intensif
Visi : 
Plafond : 
>= 8 km
>= 3000ft
5 à 8 km
1000 à 3000 ft
1500m à 5 km
500 à 1000 ft
800 à 1500m
200 à 500 ft
< 800m
< 200 ft
Symboles :   Orages  Brouillard  Fortes neiges  Fortes précipitations  Vent > 20 kt
SIGMETs :   Divers  Orages  Givrage  Turbulence  Onde Orograph.  Cendres Volcan.






- Altitude de l'aérodrome : 794 ft


LKCV - Čáslav Air Base

DERNIER METAR :
  • 090700Z VRB02KT CAVOK 10/M01 Q1022 NOSIG RMK BLU BLU

METARs EXPIRÉS :
  • 090630Z VRB02KT CAVOK 08/M02 Q1022 NOSIG RMK BLU BLU
  • 090600Z 13005KT CAVOK 06/M03 Q1022 NOSIG RMK BLU BLU
  • 090530Z 12004KT CAVOK 04/M03 Q1022 NOSIG RMK BLU BLU
  • 090500Z 16003KT CAVOK 03/M04 Q1022 NOSIG RMK BLU BLU
  • 090430Z VRB02KT CAVOK 01/M04 Q1022 NOSIG RMK BLU BLU
  • 090400Z VRB02KT CAVOK 03/M04 Q1022 NOSIG RMK BLU BLU

TAF TAF LKCV
Valide du 09 à 06h jusqu'au 10 à 06h UTC


090500Z 0906/1006 27004KT CAVOK
BECMG 0908/0911 31008KT
TEMPO 0914/0919 32014KT SCT045
BECMG 0922/0924 30004KT



MET'MAP, la Météo Aéronautique d'un coup d'oeil ! - Copyright ORBIFLY Décembre 2007 - Disclaimer

ORBIFLY MET'MAP TEAM :

Programmation & Développement : Alexandra Zaïnal
Sur une idée originale de : Baudouin d'Aumeries
Assistance à la programmation : Marc-Olivier Méhu
Soutien technique & logistique : Manuel Goepfert

Contact : metmap@orbifly.com




SOURCES & CREDITS :

   NOAA